Time;durP1;ratioP1;P1;durP2;ratioP2;P2;SDS_P1;SDS_P2;PMS_P1;PMS_P2;Temp;Humidity;BMP_temperature;BMP_pressure;BME280_temperature;BME280_humidity;BME280_pressure;Samples;Min_cycle;Max_cycle;Signal;HPM_P1;HPM_P2
2021/07/22 00:00:48;;;;;;;9.73;8.00;;;21.80;84.40;;;;;;6299554;28;20707;-66
2021/07/22 00:03:54;;;;;;;10.40;9.40;;;21.70;85.20;;;;;;6264938;28;20349;-62
2021/07/22 00:07:06;;;;;;;10.67;9.60;;;21.70;86.10;;;;;;6252805;28;20278;-60
2021/07/22 00:10:10;;;;;;;10.03;9.00;;;21.70;86.90;;;;;;6252715;28;20235;-66
2021/07/22 00:13:13;;;;;;;10.30;9.23;;;21.60;86.90;;;;;;6259979;28;20301;-60
2021/07/22 00:16:17;;;;;;;9.37;8.47;;;21.50;87.40;;;;;;6277289;28;20239;-60
2021/07/22 00:19:22;;;;;;;10.30;8.60;;;21.50;88.20;;;;;;6293496;28;20234;-60
2021/07/22 00:22:25;;;;;;;10.20;9.27;;;21.40;88.70;;;;;;6284448;28;20244;-64
2021/07/22 00:25:28;;;;;;;9.43;8.53;;;21.40;89.60;;;;;;6276142;28;20576;-60
2021/07/22 00:28:31;;;;;;;9.57;8.63;;;21.30;89.80;;;;;;6277155;28;20589;-63
2021/07/22 00:31:35;;;;;;;9.70;8.80;;;21.30;90.10;;;;;;6276879;28;20285;-65
2021/07/22 00:34:40;;;;;;;10.30;9.37;;;21.20;90.40;;;;;;6275525;28;20672;-60
2021/07/22 00:37:43;;;;;;;8.80;8.00;;;21.10;90.60;;;;;;6276748;28;20238;-62
2021/07/22 00:40:46;;;;;;;9.67;8.77;;;21.10;90.80;;;;;;6275939;28;20552;-59
2021/07/22 00:43:49;;;;;;;9.33;8.50;;;21.00;91.00;;;;;;6296906;28;20234;-59
2021/07/22 00:46:52;;;;;;;9.23;8.33;;;20.90;91.20;;;;;;6296112;28;20598;-60
2021/07/22 00:50:01;;;;;;;10.23;9.20;;;20.90;91.90;;;;;;6301404;28;20230;-65
2021/07/22 00:53:04;;;;;;;10.23;9.23;;;20.80;91.80;;;;;;6300770;28;20579;-67
2021/07/22 00:56:08;;;;;;;10.40;9.30;;;20.80;92.00;;;;;;6278214;28;20239;-58
2021/07/22 00:59:11;;;;;;;9.83;8.93;;;20.70;92.10;;;;;;6275690;28;20227;-59
2021/07/22 01:02:14;;;;;;;10.17;9.17;;;20.70;92.30;;;;;;6252090;28;20232;-62
2021/07/22 01:05:19;;;;;;;9.73;8.93;;;20.70;92.50;;;;;;6251071;28;20627;-65
2021/07/22 01:08:22;;;;;;;9.33;8.43;;;20.60;92.70;;;;;;6250929;28;20224;-60
2021/07/22 01:11:25;;;;;;;9.93;8.67;;;20.50;92.70;;;;;;6262257;28;20566;-61
2021/07/22 01:14:29;;;;;;;10.63;9.57;;;20.50;93.00;;;;;;6273202;28;20219;-58
2021/07/22 01:17:41;;;;;;;9.43;8.53;;;20.40;93.00;;;;;;6273570;28;20200;-59
2021/07/22 01:20:45;;;;;;;9.13;8.33;;;20.40;93.50;;;;;;6270770;28;20236;-59
2021/07/22 01:23:48;;;;;;;9.43;8.43;;;20.30;93.60;;;;;;6272723;28;20246;-58
2021/07/22 01:26:52;;;;;;;10.13;9.13;;;20.20;93.50;;;;;;6272609;28;20232;-59
2021/07/22 01:29:55;;;;;;;9.00;8.17;;;20.20;93.60;;;;;;6274022;28;20676;-58
2021/07/22 01:32:58;;;;;;;9.30;8.50;;;20.20;93.60;;;;;;6274006;28;20696;-59
2021/07/22 01:36:02;;;;;;;9.80;8.90;;;20.20;93.80;;;;;;6273932;28;20568;-59
2021/07/22 01:39:05;;;;;;;9.30;8.43;;;20.10;93.90;;;;;;6272140;28;20540;-58
2021/07/22 01:42:09;;;;;;;8.80;8.00;;;20.10;93.80;;;;;;6273390;28;20565;-59
2021/07/22 01:45:13;;;;;;;8.60;7.90;;;20.10;93.70;;;;;;6273196;28;20227;-59
2021/07/22 01:48:16;;;;;;;10.80;9.20;;;20.00;93.70;;;;;;6274176;28;20604;-59
2021/07/22 01:51:20;;;;;;;10.10;7.70;;;20.00;93.60;;;;;;6269976;28;20661;-58
2021/07/22 01:54:22;;;;;;;8.00;7.33;;;20.00;93.80;;;;;;6274363;28;20228;-58
2021/07/22 01:57:25;;;;;;;9.33;8.53;;;20.00;93.50;;;;;;6273149;28;20227;-64
2021/07/22 02:00:29;;;;;;;8.90;8.10;;;20.00;93.40;;;;;;6271496;28;20223;-68
2021/07/22 02:03:32;;;;;;;10.07;8.93;;;19.80;93.30;;;;;;6272662;28;20231;-62
2021/07/22 02:06:36;;;;;;;9.37;8.50;;;19.70;93.70;;;;;;6273202;28;20562;-59
2021/07/22 02:09:40;;;;;;;12.30;9.13;;;19.50;93.80;;;;;;6274171;28;20235;-62
2021/07/22 02:12:43;;;;;;;10.13;9.23;;;19.30;94.30;;;;;;6273820;28;20588;-62
2021/07/22 02:15:46;;;;;;;9.03;8.23;;;19.30;94.50;;;;;;6274729;28;20238;-59
2021/07/22 02:18:50;;;;;;;8.90;8.07;;;19.40;94.50;;;;;;6274450;28;20231;-58
2021/07/22 02:21:54;;;;;;;8.63;7.83;;;19.40;94.40;;;;;;6274498;28;20584;-59
2021/07/22 02:24:57;;;;;;;8.30;7.50;;;19.40;94.30;;;;;;6274096;28;20576;-59
2021/07/22 02:28:00;;;;;;;8.87;8.00;;;19.40;94.10;;;;;;6274649;28;20231;-59
2021/07/22 02:31:04;;;;;;;9.37;8.47;;;19.20;94.10;;;;;;6274083;28;20659;-61
2021/07/22 02:34:07;;;;;;;9.30;7.77;;;19.20;94.50;;;;;;6274307;28;20688;-63
2021/07/22 02:37:11;;;;;;;8.40;7.60;;;19.10;94.60;;;;;;6274347;28;20227;-62
2021/07/22 02:40:16;;;;;;;9.40;7.70;;;19.10;94.90;;;;;;6274788;28;20349;-62
2021/07/22 02:43:19;;;;;;;8.63;7.83;;;19.10;95.00;;;;;;6273883;28;20549;-65
2021/07/22 02:46:22;;;;;;;9.70;8.80;;;19.10;95.20;;;;;;6274176;28;20244;-68
2021/07/22 02:49:25;;;;;;;8.70;7.83;;;19.10;95.40;;;;;;6274253;28;20227;-68
2021/07/22 02:52:29;;;;;;;9.40;8.37;;;19.10;95.10;;;;;;6273916;28;20688;-59
2021/07/22 02:55:32;;;;;;;9.37;8.20;;;19.00;95.10;;;;;;6264820;28;20238;-59
2021/07/22 02:58:36;;;;;;;9.73;8.37;;;19.10;95.20;;;;;;6276005;28;20696;-65
2021/07/22 03:01:40;;;;;;;8.33;7.53;;;19.10;95.20;;;;;;6279178;28;20224;-65
2021/07/22 03:04:44;;;;;;;9.43;8.53;;;19.00;95.20;;;;;;6278970;28;20243;-69
2021/07/22 03:07:48;;;;;;;9.13;8.23;;;18.90;95.00;;;;;;6278610;28;20284;-68
2021/07/22 03:10:51;;;;;;;8.97;8.17;;;18.90;95.20;;;;;;6278853;28;20234;-62
2021/07/22 03:13:54;;;;;;;8.60;7.77;;;18.90;95.50;;;;;;6278124;28;20587;-65
2021/07/22 03:16:57;;;;;;;9.53;8.57;;;18.80;95.20;;;;;;6278421;28;20474;-65
2021/07/22 03:20:01;;;;;;;9.87;8.77;;;18.80;95.30;;;;;;6278672;28;20473;-65
2021/07/22 03:23:06;;;;;;;12.13;8.57;;;18.80;95.50;;;;;;6277706;28;20470;-65
2021/07/22 03:26:09;;;;;;;10.10;9.10;;;18.70;95.60;;;;;;6278768;28;20673;-66
2021/07/22 03:29:12;;;;;;;8.60;7.80;;;18.70;95.50;;;;;;6278450;28;21025;-65
2021/07/22 03:32:15;;;;;;;8.70;7.90;;;18.60;95.60;;;;;;6277752;28;20489;-66
2021/07/22 03:35:18;;;;;;;8.23;7.40;;;18.70;95.70;;;;;;6278392;28;20234;-67
2021/07/22 03:38:23;;;;;;;8.77;7.87;;;18.70;95.70;;;;;;6278148;28;20465;-66
2021/07/22 03:41:26;;;;;;;10.80;8.00;;;18.70;95.60;;;;;;6278266;28;20470;-65
2021/07/22 03:44:29;;;;;;;10.03;7.87;;;18.70;95.60;;;;;;6277564;28;20465;-65
2021/07/22 03:47:32;;;;;;;11.20;7.87;;;18.70;95.60;;;;;;6277745;28;20342;-66
2021/07/22 03:50:36;;;;;;;9.77;8.87;;;18.70;95.70;;;;;;6277260;28;20462;-65
2021/07/22 03:53:40;;;;;;;11.47;9.37;;;18.70;95.60;;;;;;6277728;28;20519;-66
2021/07/22 03:56:43;;;;;;;11.50;8.10;;;18.60;95.60;;;;;;6272966;28;20507;-65
2021/07/22 03:59:47;;;;;;;14.03;11.73;;;18.60;95.70;;;;;;6277590;28;20458;-65
2021/07/22 04:02:59;;;;;;;10.70;8.77;;;18.70;95.60;;;;;;6277450;28;20982;-65
2021/07/22 04:06:03;;;;;;;7.30;6.70;;;18.70;95.50;;;;;;6278350;28;20238;-65
2021/07/22 04:09:08;;;;;;;10.47;8.87;;;18.70;95.40;;;;;;6277642;28;20474;-63
2021/07/22 04:12:11;;;;;;;10.03;7.90;;;18.70;95.40;;;;;;6277321;28;20576;-65
2021/07/22 04:15:14;;;;;;;10.93;8.27;;;18.60;95.50;;;;;;6277559;28;20477;-65
2021/07/22 04:18:17;;;;;;;8.30;7.50;;;18.60;95.70;;;;;;6277514;28;20466;-65
2021/07/22 04:21:20;;;;;;;8.53;6.73;;;18.70;95.60;;;;;;6277683;28;20223;-66
2021/07/22 04:24:25;;;;;;;10.50;7.93;;;18.90;95.50;;;;;;6276781;28;20508;-66
2021/07/22 04:27:28;;;;;;;12.20;8.73;;;18.90;95.40;;;;;;6277353;28;20227;-66
2021/07/22 04:30:31;;;;;;;10.47;8.37;;;18.90;95.20;;;;;;6276806;28;20727;-66
2021/07/22 04:33:34;;;;;;;11.00;9.20;;;18.90;95.00;;;;;;6277012;28;20470;-66
2021/07/22 04:36:37;;;;;;;9.90;8.87;;;19.00;95.10;;;;;;6277019;28;20244;-65
2021/07/22 04:39:42;;;;;;;10.10;7.93;;;19.00;95.10;;;;;;6277029;28;20238;-65
2021/07/22 04:42:45;;;;;;;9.30;8.30;;;19.10;95.00;;;;;;6276398;28;20612;-65
2021/07/22 04:45:48;;;;;;;12.67;7.90;;;19.20;95.00;;;;;;6276707;28;20604;-66
2021/07/22 04:48:52;;;;;;;10.80;7.87;;;19.30;94.90;;;;;;6276887;28;20235;-66
2021/07/22 04:51:57;;;;;;;8.90;7.37;;;19.40;94.80;;;;;;6276375;28;20562;-66
2021/07/22 04:55:02;;;;;;;7.97;7.27;;;19.60;94.60;;;;;;6277231;28;20235;-66
2021/07/22 04:58:05;;;;;;;9.20;8.40;;;19.60;94.40;;;;;;6276259;28;20235;-65
2021/07/22 05:01:09;;;;;;;15.37;8.80;;;19.70;94.40;;;;;;6276546;28;20703;-66
2021/07/22 05:04:17;;;;;;;9.67;8.17;;;19.80;94.30;;;;;;6275968;28;20231;-66
2021/07/22 05:07:21;;;;;;;9.80;8.90;;;19.90;93.90;;;;;;6276409;28;20238;-66
2021/07/22 05:10:25;;;;;;;9.57;8.50;;;20.10;93.60;;;;;;6276169;28;20281;-66
2021/07/22 05:13:28;;;;;;;9.50;8.47;;;20.20;93.30;;;;;;6275850;28;20708;-66
2021/07/22 05:16:32;;;;;;;8.80;8.00;;;20.30;93.00;;;;;;6276309;28;20249;-66
2021/07/22 05:19:35;;;;;;;9.13;7.90;;;20.50;92.80;;;;;;6276049;28;20685;-66
2021/07/22 05:22:38;;;;;;;9.40;8.50;;;20.60;92.40;;;;;;6274934;28;20234;-66
2021/07/22 05:25:43;;;;;;;9.83;8.83;;;20.70;92.10;;;;;;6275694;28;20228;-66
2021/07/22 05:28:46;;;;;;;9.80;8.80;;;20.80;92.00;;;;;;6275219;28;20230;-66
2021/07/22 05:31:49;;;;;;;8.97;8.17;;;20.90;91.90;;;;;;6275549;28;20238;-66
2021/07/22 05:34:52;;;;;;;8.07;7.37;;;21.00;91.40;;;;;;6275426;28;20231;-65
2021/07/22 05:37:56;;;;;;;8.43;7.73;;;21.20;91.40;;;;;;6275523;28;20238;-66
2021/07/22 05:41:01;;;;;;;11.23;8.77;;;21.30;91.20;;;;;;6275207;28;20700;-65
2021/07/22 05:44:05;;;;;;;10.13;8.90;;;21.50;90.90;;;;;;6275096;28;20238;-65
2021/07/22 05:47:08;;;;;;;9.77;8.87;;;21.60;90.60;;;;;;6275224;28;20247;-66
2021/07/22 05:50:11;;;;;;;9.53;8.40;;;21.80;90.60;;;;;;6275044;28;20231;-64
2021/07/22 05:53:15;;;;;;;10.73;9.63;;;22.00;90.40;;;;;;6274971;28;20703;-65
2021/07/22 05:56:20;;;;;;;9.30;8.30;;;22.10;90.20;;;;;;6275043;28;20240;-66
2021/07/22 05:59:23;;;;;;;10.13;8.70;;;22.20;89.80;;;;;;6274977;28;20235;-62
2021/07/22 06:02:26;;;;;;;9.40;8.50;;;22.40;89.00;;;;;;6274273;28;20504;-69
2021/07/22 06:05:29;;;;;;;8.30;7.50;;;22.70;87.70;;;;;;6265385;28;20204;-65
2021/07/22 06:08:34;;;;;;;9.00;8.10;;;23.00;85.10;;;;;;6274372;28;20273;-64
2021/07/22 06:11:39;;;;;;;9.20;8.40;;;23.40;82.80;;;;;;6274914;28;20373;-65
2021/07/22 06:14:42;;;;;;;8.70;7.90;;;23.60;81.00;;;;;;6274510;28;20579;-60
2021/07/22 06:17:45;;;;;;;9.40;8.60;;;23.90;80.00;;;;;;6274563;28;20227;-61
2021/07/22 06:20:49;;;;;;;10.03;7.93;;;24.20;78.10;;;;;;6274385;28;20231;-60
2021/07/22 06:23:52;;;;;;;8.50;7.47;;;24.50;77.20;;;;;;6274509;28;20703;-61
2021/07/22 06:26:56;;;;;;;8.80;8.00;;;25.20;75.30;;;;;;6274479;28;20672;-65
2021/07/22 06:30:00;;;;;;;10.13;9.20;;;25.30;70.80;;;;;;6274329;28;20223;-60
2021/07/22 06:33:06;;;;;;;7.93;7.23;;;25.50;70.20;;;;;;6274345;28;20713;-65
2021/07/22 06:36:09;;;;;;;8.23;7.53;;;25.70;67.50;;;;;;6274404;28;20312;-65
2021/07/22 06:39:12;;;;;;;7.73;6.87;;;26.10;64.00;;;;;;6274587;28;20663;-67
2021/07/22 06:42:17;;;;;;;8.07;7.37;;;26.50;61.30;;;;;;6274027;28;20230;-65
2021/07/22 06:45:21;;;;;;;8.50;7.60;;;27.00;61.00;;;;;;6274215;28;20229;-66
2021/07/22 06:48:24;;;;;;;8.50;7.80;;;27.70;59.70;;;;;;6273789;28;20555;-65
2021/07/22 06:51:28;;;;;;;7.10;6.50;;;27.60;58.40;;;;;;6274454;28;20318;-70
2021/07/22 06:54:31;;;;;;;7.70;7.00;;;28.40;57.10;;;;;;6273801;28;20234;-70
2021/07/22 06:57:35;;;;;;;8.20;7.60;;;29.10;54.80;;;;;;6273952;28;20226;-70
2021/07/22 07:00:39;;;;;;;7.17;6.50;;;29.70;52.80;;;;;;6274530;28;20280;-70
2021/07/22 07:03:42;;;;;;;7.57;6.97;;;30.30;51.50;;;;;;6273789;28;20227;-70
2021/07/22 07:06:45;;;;;;;8.20;7.47;;;31.00;49.40;;;;;;6273914;28;20231;-70
2021/07/22 07:09:49;;;;;;;6.97;6.43;;;31.20;47.80;;;;;;6273971;28;20746;-70
2021/07/22 07:12:53;;;;;;;7.55;6.85;;;31.70;47.20;;;;;;6273754;28;20238;-61
2021/07/22 07:15:56;;;;;;;7.30;6.78;;;32.20;45.70;;;;;;6273607;28;20570;-62
2021/07/22 07:19:00;;;;;;;10.40;7.45;;;32.40;45.50;;;;;;6274057;28;20234;-61
2021/07/22 07:22:03;;;;;;;8.32;7.55;;;32.60;44.10;;;;;;6273547;28;20575;-61
2021/07/22 07:25:07;;;;;;;8.00;6.68;;;32.70;43.90;;;;;;6273707;28;20618;-61
2021/07/22 07:28:12;;;;;;;8.55;6.20;;;33.40;42.20;;;;;;6273394;28;20605;-61
2021/07/22 07:31:15;;;;;;;7.47;6.53;;;34.20;40.80;;;;;;6273904;28;20227;-61
2021/07/22 07:34:18;;;;;;;8.43;7.63;;;34.70;39.30;;;;;;6273445;28;20235;-61
2021/07/22 07:37:21;;;;;;;7.97;7.18;;;35.40;38.80;;;;;;6273766;28;20230;-61
2021/07/22 07:40:24;;;;;;;7.40;6.80;;;36.10;37.00;;;;;;6273677;28;20227;-61
2021/07/22 07:43:29;;;;;;;8.00;7.18;;;36.10;37.40;;;;;;6273753;28;20594;-61
2021/07/22 07:46:32;;;;;;;7.68;6.97;;;36.60;36.60;;;;;;6277846;28;20243;-61
2021/07/22 07:49:35;;;;;;;7.65;6.95;;;36.00;36.10;;;;;;6278206;28;20231;-61
2021/07/22 07:52:39;;;;;;;8.65;7.95;;;36.50;36.20;;;;;;6277979;28;20231;-61
2021/07/22 07:55:43;;;;;;;8.00;7.40;;;37.60;34.90;;;;;;6277733;28;20231;-62
2021/07/22 07:58:48;;;;;;;7.63;6.60;;;38.60;33.40;;;;;;6278012;28;20242;-62
2021/07/22 08:01:51;;;;;;;7.82;7.00;;;38.70;32.50;;;;;;6278140;28;20238;-61
2021/07/22 08:04:57;;;;;;;6.85;6.18;;;38.40;32.80;;;;;;6277717;28;20227;-65
2021/07/22 08:08:00;;;;;;;9.02;6.95;;;38.60;32.30;;;;;;6277688;28;20238;-69
2021/07/22 08:11:03;;;;;;;7.55;6.80;;;39.00;31.50;;;;;;6278178;28;20237;-69
2021/07/22 08:14:08;;;;;;;7.00;6.40;;;39.30;30.90;;;;;;6277477;28;20231;-66
2021/07/22 08:17:15;;;;;;;7.78;7.13;;;39.00;30.90;;;;;;6272990;28;20269;-66
2021/07/22 08:20:18;;;;;;;8.00;7.20;;;38.40;31.30;;;;;;6277193;28;21011;-65
2021/07/22 08:23:21;;;;;;;7.03;6.43;;;37.70;31.70;;;;;;6277333;28;20227;-66
2021/07/22 08:26:24;;;;;;;7.75;6.47;;;37.10;32.30;;;;;;6277000;28;20246;-66
2021/07/22 08:29:29;;;;;;;6.70;6.13;;;36.50;33.20;;;;;;6276599;28;20226;-66
2021/07/22 08:32:32;;;;;;;8.32;7.25;;;35.90;34.20;;;;;;6276797;28;20222;-66
2021/07/22 08:35:35;;;;;;;9.57;8.45;;;35.30;35.10;;;;;;6277343;28;20219;-67
2021/07/22 08:38:39;;;;;;;7.15;6.38;;;34.10;36.00;;;;;;6277071;28;20264;-67
2021/07/22 08:41:46;;;;;;;10.32;7.20;;;33.30;37.70;;;;;;6277194;28;20207;-65
2021/07/22 08:44:51;;;;;;;7.90;7.18;;;32.90;38.50;;;;;;6277496;28;20230;-68
2021/07/22 08:47:55;;;;;;;8.15;7.35;;;32.20;39.60;;;;;;6276600;28;20234;-68
2021/07/22 08:50:59;;;;;;;9.45;8.65;;;31.50;40.70;;;;;;6277022;28;20223;-68
2021/07/22 08:54:02;;;;;;;9.55;7.75;;;30.80;42.00;;;;;;6276191;28;20569;-67
2021/07/22 08:57:08;;;;;;;8.27;7.47;;;30.50;42.50;;;;;;6275627;28;20242;-67
2021/07/22 09:00:15;;;;;;;8.15;7.43;;;30.40;43.20;;;;;;6276068;28;20702;-67
2021/07/22 09:03:18;;;;;;;7.80;7.10;;;30.40;43.20;;;;;;6276470;28;20244;-66
2021/07/22 09:06:22;;;;;;;8.93;7.37;;;30.20;43.10;;;;;;6276067;28;20245;-69
2021/07/22 09:09:25;;;;;;;8.67;7.87;;;29.50;44.30;;;;;;6270753;28;20223;-67
2021/07/22 09:12:35;;;;;;;8.73;7.93;;;29.20;45.20;;;;;;6270805;28;20235;-62
2021/07/22 09:15:43;;;;;;;8.20;7.50;;;29.10;45.70;;;;;;6251592;28;20316;-65
2021/07/22 09:18:47;;;;;;;8.70;8.00;;;29.30;45.40;;;;;;6263232;28;20242;-65
2021/07/22 09:21:50;;;;;;;8.27;7.57;;;29.50;45.10;;;;;;6275686;28;20250;-64
2021/07/22 09:24:54;;;;;;;9.70;8.23;;;29.30;45.10;;;;;;6273902;28;20226;-65
2021/07/22 09:28:00;;;;;;;8.67;7.73;;;29.40;45.30;;;;;;6251030;28;20250;-67
2021/07/22 09:31:07;;;;;;;11.57;8.50;;;29.50;45.50;;;;;;6250762;28;20235;-68
2021/07/22 09:34:16;;;;;;;7.50;6.90;;;29.50;45.70;;;;;;6250970;28;20235;-67
2021/07/22 09:37:25;;;;;;;9.23;8.43;;;29.80;45.70;;;;;;6250576;28;20223;-68
2021/07/22 09:40:35;;;;;;;8.77;7.97;;;30.10;45.10;;;;;;6251169;28;20242;-70
2021/07/22 09:43:40;;;;;;;9.27;8.47;;;30.10;44.90;;;;;;6265762;28;20239;-70
2021/07/22 09:46:45;;;;;;;8.17;7.37;;;29.90;45.10;;;;;;6275280;28;20235;-66
2021/07/22 09:49:49;;;;;;;9.87;8.87;;;30.10;44.90;;;;;;6274720;28;20223;-66
2021/07/22 09:53:07;;;;;;;8.13;7.43;;;29.80;44.90;;;;;;6274808;28;20574;-67
2021/07/22 09:56:10;;;;;;;9.23;8.30;;;29.60;45.40;;;;;;6274678;28;20235;-64
2021/07/22 09:59:13;;;;;;;8.60;7.80;;;29.40;45.90;;;;;;6274876;28;20230;-64
2021/07/22 10:02:23;;;;;;;8.43;7.60;;;29.20;46.90;;;;;;6274456;28;20242;-62
2021/07/22 10:05:29;;;;;;;10.60;8.43;;;29.30;47.10;;;;;;6274784;28;20688;-65
2021/07/22 10:08:33;;;;;;;10.83;9.93;;;29.40;46.60;;;;;;6294753;28;20223;-65
2021/07/22 10:11:40;;;;;;;9.47;8.57;;;29.30;47.30;;;;;;6297548;28;20280;-64
2021/07/22 10:14:44;;;;;;;9.97;8.97;;;29.40;47.80;;;;;;6298968;28;20210;-66
2021/07/22 10:17:51;;;;;;;10.20;9.30;;;29.50;47.50;;;;;;6299508;28;20241;-67
2021/07/22 10:20:59;;;;;;;10.93;10.00;;;29.70;47.70;;;;;;6294803;28;20237;-63
2021/07/22 10:24:02;;;;;;;10.57;9.57;;;29.50;48.30;;;;;;6299464;28;20230;-67
2021/07/22 10:27:07;;;;;;;11.53;10.40;;;29.40;48.80;;;;;;6299558;28;20237;-69
2021/07/22 10:30:13;;;;;;;11.20;10.20;;;29.40;48.70;;;;;;6295215;28;20253;-67
2021/07/22 10:33:20;;;;;;;10.70;9.73;;;29.10;48.80;;;;;;6279988;28;20226;-67
2021/07/22 10:36:23;;;;;;;10.63;9.03;;;28.60;50.70;;;;;;6281656;28;20226;-67
2021/07/22 10:40:05;;;;;;;10.70;9.80;;;28.90;50.70;;;;;;6299505;28;20218;-68
2021/07/22 10:43:08;;;;;;;9.67;8.87;;;29.00;50.80;;;;;;6298623;28;20258;-70
2021/07/22 10:46:13;;;;;;;11.13;10.23;;;28.80;51.30;;;;;;6259493;28;20242;-69
2021/07/22 10:49:18;;;;;;;9.63;8.83;;;28.80;51.20;;;;;;6264784;28;20230;-70
2021/07/22 10:52:56;;;;;;;9.87;8.90;;;29.00;50.50;;;;;;6258240;28;20676;-68
2021/07/22 10:55:59;;;;;;;9.40;8.50;;;29.20;50.30;;;;;;6248890;28;20239;-69
2021/07/22 10:59:02;;;;;;;9.40;8.60;;;29.50;49.40;;;;;;6249997;28;20231;-63
2021/07/22 11:02:05;;;;;;;10.30;9.40;;;29.40;48.90;;;;;;6307722;28;20230;-62
2021/07/22 11:05:11;;;;;;;10.77;9.83;;;29.40;49.20;;;;;;6283351;28;20566;-62
2021/07/22 11:08:21;;;;;;;11.80;9.57;;;29.30;49.40;;;;;;6281382;28;20236;-62
2021/07/22 11:11:47;;;;;;;10.97;10.00;;;29.00;50.20;;;;;;6274035;28;20226;-62
2021/07/22 11:14:50;;;;;;;10.23;9.33;;;28.70;51.60;;;;;;6298519;28;20226;-62
2021/07/22 11:17:54;;;;;;;10.83;9.83;;;28.80;51.00;;;;;;6298083;28;20233;-63
2021/07/22 11:21:04;;;;;;;9.93;9.03;;;28.70;51.00;;;;;;6303293;28;20225;-63
2021/07/22 11:24:16;;;;;;;10.43;9.33;;;28.90;50.80;;;;;;6303095;28;20229;-64
2021/07/22 11:27:19;;;;;;;11.33;10.23;;;29.00;50.20;;;;;;6298868;28;20222;-62
2021/07/22 11:30:23;;;;;;;11.67;10.47;;;29.10;50.60;;;;;;6302821;28;20683;-66
2021/07/22 11:33:29;;;;;;;10.90;9.90;;;29.10;50.60;;;;;;6302972;28;20678;-66
2021/07/22 11:36:34;;;;;;;10.07;9.17;;;29.10;51.20;;;;;;6302988;28;20679;-63
2021/07/22 11:39:39;;;;;;;10.33;9.33;;;29.10;51.60;;;;;;6303394;28;20236;-62
2021/07/22 11:42:47;;;;;;;11.20;10.10;;;29.40;51.00;;;;;;6302612;28;20564;-64
2021/07/22 11:45:52;;;;;;;11.03;10.00;;;29.60;50.50;;;;;;6302689;28;20233;-62
2021/07/22 11:48:56;;;;;;;10.57;9.57;;;29.60;50.40;;;;;;6303044;28;20226;-63
2021/07/22 11:52:00;;;;;;;11.50;10.40;;;29.80;50.10;;;;;;6302555;28;20238;-63
2021/07/22 11:55:05;;;;;;;10.77;9.87;;;29.50;50.00;;;;;;6301369;28;20225;-61
2021/07/22 11:58:08;;;;;;;10.27;9.27;;;29.20;51.60;;;;;;6301379;28;20238;-64
2021/07/22 12:01:12;;;;;;;12.33;10.40;;;29.40;51.70;;;;;;6302609;28;20234;-65
2021/07/22 12:04:24;;;;;;;11.90;10.70;;;29.80;50.70;;;;;;6302262;28;20226;-65
2021/07/22 12:07:28;;;;;;;12.00;10.80;;;29.80;50.20;;;;;;6302194;28;20219;-64
2021/07/22 12:10:34;;;;;;;11.50;10.50;;;29.50;50.60;;;;;;6302144;28;20663;-65
2021/07/22 12:13:48;;;;;;;11.03;10.03;;;29.70;50.70;;;;;;6302203;28;20230;-62
2021/07/22 12:16:52;;;;;;;11.47;10.47;;;29.80;50.90;;;;;;6300400;28;20245;-62
2021/07/22 12:19:55;;;;;;;11.67;10.60;;;29.60;50.20;;;;;;6299322;28;20562;-61
2021/07/22 12:23:00;;;;;;;11.10;10.00;;;29.60;50.50;;;;;;6280697;28;20249;-61
2021/07/22 12:26:04;;;;;;;11.47;10.20;;;29.60;51.00;;;;;;6277321;28;20223;-61
2021/07/22 12:29:08;;;;;;;10.20;9.33;;;29.50;50.80;;;;;;6276428;28;20231;-62
2021/07/22 12:32:14;;;;;;;10.73;9.83;;;29.50;50.70;;;;;;6272519;28;20249;-62
2021/07/22 12:35:31;;;;;;;11.33;10.30;;;29.60;51.10;;;;;;6276342;28;20230;-61
2021/07/22 12:38:35;;;;;;;12.67;11.57;;;29.80;50.60;;;;;;6277973;28;20234;-60
2021/07/22 12:41:39;;;;;;;12.50;11.33;;;29.60;50.60;;;;;;6301038;28;20644;-63
2021/07/22 12:44:46;;;;;;;11.50;10.50;;;29.30;51.00;;;;;;6301688;28;20198;-63
2021/07/22 12:47:49;;;;;;;11.17;10.27;;;29.40;51.70;;;;;;6301051;28;20280;-62
2021/07/22 12:50:52;;;;;;;11.13;10.13;;;29.40;51.40;;;;;;6301637;28;20226;-62
2021/07/22 12:53:57;;;;;;;12.13;11.03;;;29.60;50.90;;;;;;6300741;28;20275;-61
2021/07/22 12:57:07;;;;;;;11.87;10.67;;;29.60;50.80;;;;;;6301547;28;20241;-60
2021/07/22 13:00:15;;;;;;;11.47;10.33;;;29.60;50.70;;;;;;6300907;28;20701;-60
2021/07/22 13:03:18;;;;;;;11.83;10.43;;;29.50;50.70;;;;;;6301399;28;20238;-61
2021/07/22 13:06:22;;;;;;;11.63;10.53;;;29.40;51.30;;;;;;6300987;28;20263;-61
2021/07/22 13:09:27;;;;;;;11.53;10.57;;;29.00;52.30;;;;;;6301053;28;20233;-61
2021/07/22 13:12:34;;;;;;;12.97;11.73;;;29.10;52.10;;;;;;6300616;28;20690;-61
2021/07/22 13:15:37;;;;;;;13.40;12.00;;;28.90;51.90;;;;;;6300750;28;20222;-60
2021/07/22 13:18:41;;;;;;;11.00;9.70;;;29.00;52.20;;;;;;6300388;28;20543;-60
2021/07/22 13:21:44;;;;;;;11.43;10.33;;;29.00;52.10;;;;;;6300366;28;20307;-61
2021/07/22 13:24:49;;;;;;;11.40;10.40;;;29.00;51.70;;;;;;6299491;28;20222;-62
2021/07/22 13:27:53;;;;;;;11.60;10.30;;;28.90;51.90;;;;;;6300099;28;20230;-61
2021/07/22 13:30:56;;;;;;;11.60;10.70;;;28.90;52.30;;;;;;6300249;28;20570;-61
2021/07/22 13:33:59;;;;;;;11.40;10.30;;;29.20;51.60;;;;;;6294993;28;20226;-61
2021/07/22 13:37:02;;;;;;;11.63;10.40;;;29.30;51.20;;;;;;6299931;28;20561;-61
2021/07/22 13:40:09;;;;;;;11.67;10.20;;;29.50;50.60;;;;;;6300063;28;20241;-61
2021/07/22 13:43:15;;;;;;;11.70;10.70;;;29.00;51.30;;;;;;6299533;28;20285;-61
2021/07/22 13:46:18;;;;;;;13.13;11.90;;;28.80;52.50;;;;;;6288786;28;20238;-60
2021/07/22 13:49:22;;;;;;;11.93;10.90;;;28.80;52.40;;;;;;6281477;28;20231;-60
2021/07/22 13:52:25;;;;;;;11.40;10.33;;;28.80;53.00;;;;;;6272635;28;20241;-60
2021/07/22 13:55:29;;;;;;;11.97;10.37;;;28.80;53.10;;;;;;6272503;28;20227;-63
2021/07/22 13:58:33;;;;;;;11.03;10.03;;;29.00;52.90;;;;;;6272817;28;20235;-60
2021/07/22 14:01:36;;;;;;;12.87;10.70;;;29.00;52.40;;;;;;6272884;28;20231;-59
2021/07/22 14:04:40;;;;;;;11.00;10.10;;;29.10;52.00;;;;;;6272714;28;20308;-59
2021/07/22 14:07:43;;;;;;;11.50;10.50;;;29.10;52.30;;;;;;6273756;28;20227;-59
2021/07/22 14:10:48;;;;;;;11.00;10.10;;;29.00;52.90;;;;;;6273614;28;20234;-67
2021/07/22 14:13:51;;;;;;;12.53;11.23;;;29.10;52.30;;;;;;6273269;28;20241;-59
2021/07/22 14:16:54;;;;;;;11.83;10.73;;;29.30;52.00;;;;;;6273573;28;20237;-64
2021/07/22 14:19:57;;;;;;;11.20;10.20;;;29.10;52.10;;;;;;6272937;28;20233;-61
2021/07/22 14:23:01;;;;;;;12.67;10.73;;;29.10;51.60;;;;;;6273530;28;20242;-65
2021/07/22 14:26:05;;;;;;;11.60;10.60;;;29.10;51.60;;;;;;6272805;28;20230;-63
2021/07/22 14:29:08;;;;;;;11.80;10.50;;;29.10;51.60;;;;;;6273342;28;20711;-64
2021/07/22 14:32:11;;;;;;;13.13;10.70;;;29.20;51.60;;;;;;6272928;28;20219;-63
2021/07/22 14:35:15;;;;;;;12.70;11.60;;;28.90;51.70;;;;;;6273314;28;20226;-63
2021/07/22 14:38:18;;;;;;;11.70;10.50;;;28.60;52.80;;;;;;6272751;28;20223;-60
2021/07/22 14:41:23;;;;;;;11.30;10.30;;;28.50;53.00;;;;;;6268694;28;20234;-63
2021/07/22 14:44:30;;;;;;;12.43;11.40;;;28.60;52.70;;;;;;6273074;28;20338;-63
2021/07/22 14:47:36;;;;;;;11.67;10.63;;;28.80;52.80;;;;;;6259190;28;1109046;-60
2021/07/22 14:50:40;;;;;;;12.33;11.20;;;29.00;52.30;;;;;;6298500;28;20209;-63
2021/07/22 14:53:43;;;;;;;12.50;11.40;;;28.90;52.60;;;;;;6298025;28;20222;-64
2021/07/22 14:56:47;;;;;;;11.70;10.60;;;28.80;52.50;;;;;;6299149;28;20202;-61
2021/07/22 14:59:52;;;;;;;11.60;10.50;;;28.70;52.90;;;;;;6298707;28;20222;-61
2021/07/22 15:02:58;;;;;;;11.30;10.30;;;28.90;52.70;;;;;;6298768;28;20298;-66
2021/07/22 15:06:02;;;;;;;12.37;11.27;;;28.90;52.60;;;;;;6298604;28;20352;-61
2021/07/22 15:09:06;;;;;;;12.77;11.57;;;28.90;52.50;;;;;;6298992;28;20232;-63
2021/07/22 15:12:11;;;;;;;11.40;10.40;;;28.90;52.90;;;;;;6298300;28;20230;-65
2021/07/22 15:15:14;;;;;;;11.53;10.37;;;28.90;53.10;;;;;;6298750;28;20240;-61
2021/07/22 15:18:17;;;;;;;10.70;9.80;;;28.90;52.90;;;;;;6298259;28;20226;-66
2021/07/22 15:21:20;;;;;;;11.23;10.23;;;28.90;52.50;;;;;;6298542;28;20245;-60
2021/07/22 15:24:23;;;;;;;11.77;10.83;;;29.00;52.20;;;;;;6298242;28;20245;-63
2021/07/22 15:27:28;;;;;;;11.50;10.30;;;29.30;52.10;;;;;;6298441;28;20218;-62
2021/07/22 15:30:31;;;;;;;11.97;10.77;;;29.20;51.80;;;;;;6298239;28;20690;-63
2021/07/22 15:33:34;;;;;;;12.20;10.43;;;29.20;51.60;;;;;;6298307;28;20234;-61
2021/07/22 15:36:54;;;;;;;11.37;10.27;;;29.00;52.10;;;;;;6298192;28;20238;-62
2021/07/22 15:39:57;;;;;;;11.63;10.63;;;28.80;52.80;;;;;;6298308;28;20233;-61
2021/07/22 15:43:02;;;;;;;11.57;10.47;;;28.90;52.70;;;;;;6288470;28;20238;-62
2021/07/22 15:46:05;;;;;;;12.07;11.07;;;29.00;52.70;;;;;;6296889;28;20311;-64
2021/07/22 15:49:08;;;;;;;12.83;11.63;;;29.20;52.50;;;;;;6297944;28;20230;-58